Time;durP1;ratioP1;P1;durP2;ratioP2;P2;SDS_P1;SDS_P2;PMS_P1;PMS_P2;Temp;Humidity;BMP_temperature;BMP_pressure;BME280_temperature;BME280_humidity;BME280_pressure;Samples;Min_cycle;Max_cycle;Signal;HPM_P1;HPM_P2
2022/10/17 00:01:13;;;;;;;1.50;1.40;;;18.40;99.90;;;;;;4994652;28;20209;-71
2022/10/17 00:03:39;;;;;;;1.45;1.35;;;18.40;99.90;;;;;;4978538;28;20680;-71
2022/10/17 00:06:12;;;;;;;1.90;1.40;;;18.40;99.90;;;;;;4996091;28;20196;-72
2022/10/17 00:08:40;;;;;;;1.70;1.40;;;18.40;99.90;;;;;;4995261;28;20200;-72
2022/10/17 00:11:16;;;;;;;1.48;1.38;;;18.40;99.90;;;;;;4994704;28;20193;-71
2022/10/17 00:13:42;;;;;;;1.65;1.55;;;18.40;99.90;;;;;;4995051;28;20223;-72
2022/10/17 00:16:09;;;;;;;1.65;1.55;;;18.40;99.90;;;;;;4994698;28;20655;-72
2022/10/17 00:18:35;;;;;;;2.13;1.30;;;18.40;99.90;;;;;;4994677;28;20185;-72
2022/10/17 00:21:01;;;;;;;1.85;1.63;;;18.40;99.90;;;;;;4994305;28;20224;-72
2022/10/17 00:23:27;;;;;;;1.50;1.40;;;18.40;99.90;;;;;;4963255;28;20189;-71
2022/10/17 00:26:03;;;;;;;1.85;1.70;;;18.40;99.90;;;;;;4991499;28;20189;-71
2022/10/17 00:28:30;;;;;;;1.77;1.50;;;18.40;99.90;;;;;;4976292;28;20200;-71
2022/10/17 00:31:04;;;;;;;1.42;1.33;;;18.40;99.90;;;;;;4991236;28;20339;-71
2022/10/17 00:33:31;;;;;;;1.90;1.60;;;18.40;99.90;;;;;;4991164;28;20182;-71
2022/10/17 00:36:12;;;;;;;1.48;1.38;;;18.30;99.90;;;;;;4991225;28;20229;-71
2022/10/17 00:38:40;;;;;;;1.58;1.48;;;18.40;99.90;;;;;;4991411;28;20539;-72
2022/10/17 00:41:08;;;;;;;1.60;1.50;;;18.30;99.90;;;;;;4990684;28;20208;-72
2022/10/17 00:44:27;;;;;;;1.40;1.30;;;18.40;99.90;;;;;;4991254;28;20276;-72
2022/10/17 00:46:53;;;;;;;1.77;1.65;;;18.30;99.90;;;;;;4990677;28;20764;-72
2022/10/17 00:49:20;;;;;;;1.50;1.40;;;18.30;99.90;;;;;;4990725;28;20178;-71
2022/10/17 00:51:54;;;;;;;2.25;1.58;;;18.30;99.90;;;;;;4990779;28;20300;-72
2022/10/17 00:54:29;;;;;;;1.63;1.52;;;18.30;99.90;;;;;;4991189;28;20182;-71
2022/10/17 00:56:56;;;;;;;1.75;1.50;;;18.30;99.90;;;;;;4990790;28;20189;-72
2022/10/17 00:59:23;;;;;;;1.30;1.20;;;18.30;99.90;;;;;;4989586;28;20556;-71
2022/10/17 01:02:16;;;;;;;1.60;1.50;;;18.40;99.90;;;;;;4990630;28;20217;-72
2022/10/17 01:04:46;;;;;;;2.08;1.42;;;18.30;99.90;;;;;;4991058;28;20209;-72
2022/10/17 01:07:12;;;;;;;1.60;1.50;;;18.40;99.90;;;;;;4990424;28;20221;-72
2022/10/17 01:09:40;;;;;;;1.73;1.40;;;18.30;99.90;;;;;;4990390;28;20193;-72
2022/10/17 01:12:51;;;;;;;2.40;1.30;;;18.30;99.90;;;;;;4990504;28;20205;-73
2022/10/17 01:15:44;;;;;;;1.30;1.20;;;18.40;99.90;;;;;;4973257;28;20316;-72
2022/10/17 01:19:01;;;;;;;1.45;1.20;;;18.30;99.90;;;;;;4990384;28;20178;-72
2022/10/17 01:21:55;;;;;;;1.60;1.50;;;18.30;99.90;;;;;;4970008;28;20217;-72
2022/10/17 01:25:22;;;;;;;1.48;1.38;;;18.30;99.90;;;;;;4990532;28;20197;-72
2022/10/17 01:28:17;;;;;;;1.40;1.30;;;18.30;99.90;;;;;;5007887;28;20212;-71
2022/10/17 01:31:12;;;;;;;1.63;1.52;;;18.30;99.90;;;;;;4977147;28;20287;-71
2022/10/17 01:34:29;;;;;;;1.35;1.25;;;18.30;99.90;;;;;;4993398;28;20201;-71
2022/10/17 01:37:13;;;;;;;2.75;1.50;;;18.30;99.90;;;;;;4977343;28;20209;-72
2022/10/17 01:40:06;;;;;;;1.20;1.13;;;18.30;99.90;;;;;;4993283;28;20268;-71
2022/10/17 01:42:40;;;;;;;1.90;1.70;;;18.30;99.90;;;;;;4990455;28;20197;-72
2022/10/17 01:45:15;;;;;;;1.75;1.50;;;18.30;99.90;;;;;;4993416;28;20191;-71
2022/10/17 01:47:42;;;;;;;1.75;1.48;;;18.30;99.90;;;;;;4992905;28;20243;-72
2022/10/17 01:50:20;;;;;;;1.35;1.25;;;18.30;99.90;;;;;;4992444;28;20189;-72
2022/10/17 01:53:00;;;;;;;1.30;1.20;;;18.30;99.90;;;;;;4992945;28;20181;-71
2022/10/17 01:55:38;;;;;;;1.40;1.30;;;18.30;99.90;;;;;;4976567;28;20206;-72
2022/10/17 01:58:25;;;;;;;1.33;1.23;;;18.30;99.90;;;;;;4977078;28;20176;-72
2022/10/17 02:00:55;;;;;;;1.35;1.20;;;18.30;99.90;;;;;;4976533;28;20222;-72
2022/10/17 02:03:23;;;;;;;1.40;1.30;;;18.30;99.90;;;;;;4976915;28;20239;-72
2022/10/17 02:05:49;;;;;;;1.20;1.10;;;18.30;99.90;;;;;;4990982;28;20192;-72
2022/10/17 02:08:27;;;;;;;1.65;1.40;;;18.30;99.90;;;;;;4976355;28;20240;-71
2022/10/17 02:11:09;;;;;;;1.60;1.50;;;18.30;99.90;;;;;;4992328;28;20255;-71
2022/10/17 02:14:16;;;;;;;1.33;1.20;;;18.30;99.90;;;;;;4979018;28;20189;-71
2022/10/17 02:17:13;;;;;;;1.40;1.30;;;18.30;99.90;;;;;;4992450;28;20181;-71
2022/10/17 02:19:53;;;;;;;1.20;1.20;;;18.30;99.90;;;;;;4988143;28;20241;-71
2022/10/17 02:22:46;;;;;;;1.55;1.20;;;18.30;99.90;;;;;;4992298;28;20224;-72
2022/10/17 02:25:27;;;;;;;1.30;1.20;;;18.30;99.90;;;;;;5008726;28;20176;-71
2022/10/17 02:29:03;;;;;;;2.63;1.35;;;18.30;99.90;;;;;;4992476;28;20212;-72
2022/10/17 02:31:44;;;;;;;1.20;1.20;;;18.30;99.90;;;;;;4955425;28;20202;-71
2022/10/17 02:35:02;;;;;;;1.35;1.25;;;18.30;99.90;;;;;;4955666;28;20170;-71
2022/10/17 02:37:30;;;;;;;1.27;1.17;;;18.20;99.90;;;;;;4950198;28;20208;-72
2022/10/17 02:40:00;;;;;;;1.48;1.30;;;18.30;99.90;;;;;;4992039;28;20181;-71
2022/10/17 02:42:28;;;;;;;1.40;1.30;;;18.30;99.90;;;;;;4992436;28;20181;-71
2022/10/17 02:45:00;;;;;;;1.30;1.10;;;18.30;99.90;;;;;;4992310;28;20185;-71
2022/10/17 02:47:49;;;;;;;1.00;1.00;;;18.20;99.90;;;;;;5008434;28;20217;-72
2022/10/17 02:50:15;;;;;;;2.17;1.30;;;18.20;99.90;;;;;;4991490;28;20177;-71
2022/10/17 02:53:10;;;;;;;1.00;1.00;;;18.30;99.90;;;;;;5039190;22;20245;-67
2022/10/17 02:55:49;;;;;;;1.20;1.17;;;18.20;99.90;;;;;;5014682;28;20191;-67
2022/10/17 02:58:22;;;;;;;1.20;1.10;;;18.30;99.90;;;;;;5031592;28;20205;-68
2022/10/17 03:00:51;;;;;;;1.63;1.10;;;18.20;99.90;;;;;;5014670;28;20206;-67
2022/10/17 03:03:24;;;;;;;1.85;1.30;;;18.30;99.90;;;;;;4998584;28;20219;-67
2022/10/17 03:05:51;;;;;;;1.40;1.30;;;18.20;99.90;;;;;;4998360;28;20220;-68
2022/10/17 03:08:18;;;;;;;1.15;1.10;;;18.20;99.90;;;;;;4998522;28;20299;-67
2022/10/17 03:10:44;;;;;;;1.63;1.52;;;18.20;99.90;;;;;;5032161;28;20167;-67
2022/10/17 03:13:10;;;;;;;1.10;1.00;;;18.30;99.90;;;;;;4998332;28;20572;-68
2022/10/17 03:15:39;;;;;;;1.20;1.10;;;18.30;99.90;;;;;;5014939;28;20175;-67
2022/10/17 03:18:04;;;;;;;1.63;1.30;;;18.20;99.90;;;;;;4998638;28;20241;-68
2022/10/17 03:20:30;;;;;;;1.30;1.10;;;18.20;99.90;;;;;;4998306;28;20639;-68
2022/10/17 03:22:56;;;;;;;1.35;1.25;;;18.30;99.90;;;;;;5000062;28;20207;-67
2022/10/17 03:25:22;;;;;;;1.25;1.15;;;18.30;99.90;;;;;;5002457;28;20191;-68
2022/10/17 03:27:48;;;;;;;1.08;1.08;;;18.20;99.90;;;;;;5018440;28;20203;-67
2022/10/17 03:30:14;;;;;;;1.30;1.20;;;18.30;99.90;;;;;;5002202;28;20206;-67
2022/10/17 03:32:40;;;;;;;1.30;1.20;;;18.20;99.90;;;;;;5035004;28;20285;-67
2022/10/17 03:35:06;;;;;;;1.02;1.02;;;18.30;99.90;;;;;;5034837;28;20278;-68
2022/10/17 03:37:32;;;;;;;1.30;1.20;;;18.20;99.90;;;;;;5018330;28;20199;-67
2022/10/17 03:39:58;;;;;;;1.90;1.20;;;18.20;99.90;;;;;;5002148;28;20175;-68
2022/10/17 03:42:24;;;;;;;1.17;1.10;;;18.20;99.90;;;;;;5002336;28;20256;-68
2022/10/17 03:44:50;;;;;;;1.10;1.10;;;18.20;99.90;;;;;;5034669;28;20183;-68
2022/10/17 03:47:16;;;;;;;1.02;1.02;;;18.20;99.90;;;;;;5002206;28;20203;-66
2022/10/17 03:49:43;;;;;;;0.93;0.93;;;18.20;99.90;;;;;;5034651;28;20190;-67
2022/10/17 03:52:13;;;;;;;0.98;0.98;;;18.20;99.90;;;;;;5001636;28;20207;-67
2022/10/17 03:54:40;;;;;;;1.02;1.02;;;18.20;99.90;;;;;;5034337;28;20183;-67
2022/10/17 03:57:06;;;;;;;1.65;1.17;;;18.20;99.90;;;;;;5017887;28;20179;-67
2022/10/17 03:59:32;;;;;;;1.52;1.15;;;18.20;99.90;;;;;;5017706;28;20672;-66
2022/10/17 04:02:03;;;;;;;1.05;1.05;;;18.20;99.90;;;;;;5017827;28;20243;-67
2022/10/17 04:04:29;;;;;;;1.25;1.10;;;18.20;99.90;;;;;;5017390;28;20218;-68
2022/10/17 04:06:55;;;;;;;1.25;1.13;;;18.20;99.90;;;;;;4997975;28;20208;-68
2022/10/17 04:09:21;;;;;;;1.20;1.10;;;18.20;99.90;;;;;;4998423;28;20271;-67
2022/10/17 04:11:59;;;;;;;1.30;1.20;;;18.20;99.90;;;;;;4998142;28;20268;-68
2022/10/17 04:14:25;;;;;;;1.45;1.20;;;18.20;99.90;;;;;;4998019;28;20660;-66
2022/10/17 04:16:52;;;;;;;1.17;1.10;;;18.20;99.90;;;;;;4998005;28;20188;-67
2022/10/17 04:19:19;;;;;;;2.28;1.20;;;18.20;99.90;;;;;;4998362;28;20180;-68
2022/10/17 04:21:46;;;;;;;1.23;1.10;;;18.20;99.90;;;;;;4997732;28;20208;-68
2022/10/17 04:24:13;;;;;;;1.27;1.17;;;18.20;99.90;;;;;;4998124;28;20192;-67
2022/10/17 04:26:44;;;;;;;1.35;1.05;;;18.20;99.90;;;;;;4997595;28;20211;-67
2022/10/17 04:29:11;;;;;;;1.20;1.10;;;18.20;99.90;;;;;;4997839;28;20184;-68
2022/10/17 04:31:37;;;;;;;1.05;1.00;;;18.20;99.90;;;;;;4997386;28;20199;-67
2022/10/17 04:34:14;;;;;;;1.15;1.05;;;18.20;99.90;;;;;;4997456;28;20172;-67
2022/10/17 04:36:40;;;;;;;0.93;0.90;;;18.20;99.90;;;;;;4997566;28;20188;-68
2022/10/17 04:39:06;;;;;;;1.02;0.93;;;18.20;99.90;;;;;;4997349;28;20192;-67
2022/10/17 04:41:32;;;;;;;1.05;0.95;;;18.20;99.90;;;;;;4997065;28;20204;-68
2022/10/17 04:43:57;;;;;;;1.30;1.20;;;18.20;99.90;;;;;;4997494;28;20180;-68
2022/10/17 04:46:25;;;;;;;1.20;1.10;;;18.20;99.90;;;;;;4997225;28;20674;-67
2022/10/17 04:48:50;;;;;;;1.70;1.02;;;18.20;99.90;;;;;;4997556;28;20219;-67
2022/10/17 04:51:17;;;;;;;1.30;1.20;;;18.20;99.90;;;;;;4997026;28;20299;-67
2022/10/17 04:54:06;;;;;;;1.30;1.20;;;18.20;99.90;;;;;;4997194;28;20184;-67
2022/10/17 04:56:33;;;;;;;1.20;1.10;;;18.20;99.90;;;;;;4997322;28;20242;-67
2022/10/17 04:58:59;;;;;;;1.38;1.27;;;18.20;99.90;;;;;;4981359;28;20184;-67
2022/10/17 05:01:25;;;;;;;1.23;1.13;;;18.20;99.90;;;;;;4996875;28;20214;-67
2022/10/17 05:03:52;;;;;;;1.73;1.63;;;18.20;99.90;;;;;;4997072;28;20188;-67
2022/10/17 05:06:22;;;;;;;1.88;1.48;;;18.10;99.90;;;;;;4996812;28;20206;-67
2022/10/17 05:09:07;;;;;;;1.58;1.17;;;18.20;99.90;;;;;;4996862;28;20247;-69
2022/10/17 05:11:32;;;;;;;1.33;1.23;;;18.10;99.90;;;;;;4996088;28;20633;-67
2022/10/17 05:14:00;;;;;;;1.60;1.50;;;18.10;99.90;;;;;;4996697;28;20184;-69
2022/10/17 05:16:28;;;;;;;1.40;1.25;;;18.20;99.90;;;;;;5005494;28;20179;-69
2022/10/17 05:18:57;;;;;;;1.27;1.17;;;18.20;99.90;;;;;;5015405;28;20274;-69
2022/10/17 05:21:28;;;;;;;1.38;1.27;;;18.20;99.90;;;;;;5015607;28;20245;-69
2022/10/17 05:23:55;;;;;;;1.65;1.40;;;18.10;99.90;;;;;;5015815;28;20237;-69
2022/10/17 05:26:22;;;;;;;1.40;1.30;;;18.10;99.90;;;;;;5016026;28;20183;-69
2022/10/17 05:28:48;;;;;;;1.48;1.20;;;18.10;99.90;;;;;;5015776;28;20184;-69
2022/10/17 05:31:15;;;;;;;1.50;1.40;;;18.20;99.90;;;;;;5015731;28;20203;-69
2022/10/17 05:33:41;;;;;;;1.50;1.40;;;18.10;99.90;;;;;;5015883;28;20186;-69
2022/10/17 05:36:07;;;;;;;1.90;1.65;;;18.10;99.90;;;;;;5020157;28;20183;-69
2022/10/17 05:38:35;;;;;;;1.73;1.63;;;18.10;99.90;;;;;;5016541;28;20232;-69
2022/10/17 05:41:04;;;;;;;1.63;1.52;;;18.10;99.90;;;;;;5015283;28;20218;-69
2022/10/17 05:43:32;;;;;;;1.73;1.63;;;18.10;99.90;;;;;;5015498;28;20187;-69
2022/10/17 05:45:58;;;;;;;1.85;1.75;;;18.10;99.90;;;;;;5014842;28;20187;-69
2022/10/17 05:48:24;;;;;;;1.65;1.55;;;18.10;99.90;;;;;;5015396;28;20219;-69
2022/10/17 05:51:01;;;;;;;1.58;1.48;;;18.10;99.90;;;;;;5015015;28;20179;-68
2022/10/17 05:53:32;;;;;;;2.10;1.55;;;18.10;99.90;;;;;;5015454;28;20209;-68
2022/10/17 05:56:04;;;;;;;2.03;1.60;;;18.10;99.90;;;;;;4999092;28;20232;-68
2022/10/17 05:58:33;;;;;;;2.05;1.73;;;18.10;99.90;;;;;;5015242;28;20609;-68
2022/10/17 06:01:05;;;;;;;1.80;1.70;;;18.10;99.90;;;;;;5014992;28;20211;-69
2022/10/17 06:03:32;;;;;;;2.00;1.73;;;18.10;99.90;;;;;;5013501;28;20249;-69
2022/10/17 06:06:10;;;;;;;2.08;1.90;;;18.10;99.90;;;;;;5011852;28;20163;-69
2022/10/17 06:08:40;;;;;;;1.90;1.80;;;18.10;99.90;;;;;;4999249;28;20733;-69
2022/10/17 06:11:08;;;;;;;1.92;1.73;;;18.10;99.90;;;;;;5014780;28;20199;-69
2022/10/17 06:13:34;;;;;;;2.10;1.95;;;18.10;99.90;;;;;;5013449;28;20183;-69
2022/10/17 06:16:06;;;;;;;2.60;2.08;;;18.10;99.90;;;;;;5014495;28;20183;-69
2022/10/17 06:18:32;;;;;;;2.00;1.90;;;18.10;99.90;;;;;;5014162;28;20198;-69
2022/10/17 06:21:08;;;;;;;2.20;1.88;;;18.10;99.90;;;;;;5014109;28;20274;-69
2022/10/17 06:23:36;;;;;;;2.03;1.80;;;18.10;99.90;;;;;;4998242;28;20210;-69
2022/10/17 06:26:12;;;;;;;2.03;1.88;;;18.10;99.90;;;;;;5014137;28;20654;-69
2022/10/17 06:28:39;;;;;;;1.90;1.80;;;18.10;99.90;;;;;;5014828;28;20183;-69
2022/10/17 06:31:14;;;;;;;2.25;2.05;;;18.10;99.90;;;;;;5014467;28;20218;-69
2022/10/17 06:33:41;;;;;;;2.53;2.15;;;18.10;99.90;;;;;;5014713;28;20246;-69
2022/10/17 06:36:11;;;;;;;2.08;1.98;;;18.10;99.90;;;;;;5014636;28;20237;-69
2022/10/17 06:38:38;;;;;;;2.47;2.00;;;18.10;99.90;;;;;;5014649;28;20275;-69
2022/10/17 06:41:17;;;;;;;2.25;2.05;;;18.10;99.90;;;;;;5014385;28;20234;-69
2022/10/17 06:43:45;;;;;;;2.55;2.35;;;18.10;99.90;;;;;;5014518;28;20186;-69
2022/10/17 06:46:29;;;;;;;2.75;2.20;;;18.10;99.90;;;;;;5017458;28;20198;-69
2022/10/17 06:49:01;;;;;;;2.53;2.33;;;18.00;99.90;;;;;;4998956;28;20334;-69
2022/10/17 06:52:00;;;;;;;2.90;2.53;;;18.10;99.90;;;;;;4986447;28;20226;-69
2022/10/17 06:54:45;;;;;;;2.65;2.45;;;18.10;99.90;;;;;;5014249;28;20183;-69
2022/10/17 06:57:29;;;;;;;3.03;2.50;;;18.10;99.90;;;;;;5016161;28;20209;-68
2022/10/17 07:00:22;;;;;;;3.30;2.60;;;18.10;99.90;;;;;;5014057;28;20191;-68
2022/10/17 07:02:51;;;;;;;3.60;2.85;;;18.10;99.90;;;;;;5013987;28;20289;-69
2022/10/17 07:05:18;;;;;;;3.10;2.88;;;18.10;99.90;;;;;;5014411;28;20191;-69
2022/10/17 07:07:44;;;;;;;3.78;2.70;;;18.10;99.90;;;;;;5014163;28;20207;-69
2022/10/17 07:10:11;;;;;;;3.38;2.75;;;18.10;99.90;;;;;;5014271;28;20179;-68
2022/10/17 07:12:37;;;;;;;3.03;2.72;;;18.10;99.90;;;;;;5014154;28;20257;-69
2022/10/17 07:15:04;;;;;;;3.33;3.03;;;18.10;99.90;;;;;;5014203;28;20183;-69
2022/10/17 07:17:30;;;;;;;4.00;3.22;;;18.10;99.90;;;;;;5013788;28;20183;-69
2022/10/17 07:19:56;;;;;;;3.15;2.83;;;18.10;99.90;;;;;;5013985;28;20190;-68
2022/10/17 07:22:23;;;;;;;3.90;2.80;;;18.10;99.90;;;;;;5014055;28;20210;-69
2022/10/17 07:24:52;;;;;;;3.17;2.88;;;18.10;99.90;;;;;;5014462;28;20176;-69
2022/10/17 07:27:28;;;;;;;3.83;3.30;;;18.10;99.90;;;;;;5013996;28;20592;-69
2022/10/17 07:29:54;;;;;;;4.32;3.17;;;18.10;99.90;;;;;;5013861;28;20179;-69
2022/10/17 07:32:40;;;;;;;3.20;2.80;;;18.20;99.90;;;;;;5013861;28;20756;-69
2022/10/17 07:35:09;;;;;;;3.25;2.80;;;18.20;99.90;;;;;;5013946;28;20663;-69
2022/10/17 07:37:35;;;;;;;3.72;2.83;;;18.20;99.90;;;;;;4997612;28;20211;-69
2022/10/17 07:40:02;;;;;;;3.53;2.97;;;18.20;99.90;;;;;;5013691;28;20182;-69
2022/10/17 07:42:28;;;;;;;3.00;2.70;;;18.20;99.90;;;;;;5013965;28;20749;-69
2022/10/17 07:44:54;;;;;;;4.00;2.95;;;18.30;99.90;;;;;;5014123;28;20222;-68
2022/10/17 07:47:21;;;;;;;2.72;2.53;;;18.30;99.90;;;;;;5013790;28;20243;-69
2022/10/17 07:49:48;;;;;;;3.22;2.90;;;18.30;99.90;;;;;;5013730;28;20176;-67
2022/10/17 07:52:15;;;;;;;4.10;2.85;;;18.30;99.90;;;;;;5031372;28;20207;-69
2022/10/17 07:54:42;;;;;;;4.78;3.10;;;18.30;99.90;;;;;;4997621;28;20218;-69
2022/10/17 07:57:09;;;;;;;2.92;2.63;;;18.30;99.90;;;;;;5013403;28;20274;-69
2022/10/17 07:59:37;;;;;;;3.00;2.70;;;18.30;99.90;;;;;;5013756;28;20544;-69
2022/10/17 08:02:03;;;;;;;4.40;3.08;;;18.30;99.90;;;;;;5013563;28;20690;-69
2022/10/17 08:04:29;;;;;;;3.42;2.90;;;18.40;99.90;;;;;;5013898;28;20659;-69
2022/10/17 08:06:55;;;;;;;3.20;2.90;;;18.40;99.90;;;;;;5013735;28;20203;-69
2022/10/17 08:09:21;;;;;;;3.03;2.80;;;18.40;99.90;;;;;;5011439;28;20196;-69
2022/10/17 08:11:47;;;;;;;4.85;2.92;;;18.40;99.90;;;;;;4998410;28;20251;-69
2022/10/17 08:14:15;;;;;;;3.33;2.60;;;18.40;99.90;;;;;;4997505;28;20287;-69
2022/10/17 08:16:42;;;;;;;3.40;2.13;;;18.40;99.90;;;;;;4997583;28;20246;-69
2022/10/17 08:19:10;;;;;;;2.75;2.55;;;18.40;99.90;;;;;;4997485;28;20194;-69
2022/10/17 08:21:37;;;;;;;3.58;2.80;;;18.40;99.90;;;;;;4997106;28;20238;-69
2022/10/17 08:24:04;;;;;;;2.90;2.45;;;18.40;99.90;;;;;;4997500;28;20283;-69
2022/10/17 08:26:29;;;;;;;2.53;2.33;;;18.40;99.90;;;;;;4997192;28;20652;-69
2022/10/17 08:28:55;;;;;;;3.33;3.03;;;18.40;99.90;;;;;;4997436;28;20180;-69
2022/10/17 08:31:21;;;;;;;4.10;2.55;;;18.40;99.90;;;;;;4997247;28;20255;-69
2022/10/17 08:33:49;;;;;;;2.53;2.30;;;18.40;99.90;;;;;;5014718;28;20199;-69
2022/10/17 08:36:19;;;;;;;2.97;2.70;;;18.40;99.90;;;;;;4980859;28;20195;-69
2022/10/17 08:38:45;;;;;;;3.22;2.65;;;18.40;99.90;;;;;;4996993;28;20195;-69
2022/10/17 08:41:35;;;;;;;4.47;2.40;;;18.40;99.90;;;;;;4996883;28;20216;-69
2022/10/17 08:44:38;;;;;;;4.35;2.40;;;18.40;99.90;;;;;;4997171;28;20199;-69
2022/10/17 08:47:13;;;;;;;3.00;2.70;;;18.40;99.90;;;;;;4996889;28;20216;-69
2022/10/17 08:49:57;;;;;;;3.45;2.70;;;18.40;99.90;;;;;;4996926;28;20221;-69
2022/10/17 08:52:34;;;;;;;2.50;2.30;;;18.40;99.90;;;;;;5057744;22;20237;-73
2022/10/17 08:55:00;;;;;;;3.10;2.80;;;18.40;99.90;;;;;;5054076;28;20178;-73
2022/10/17 08:57:27;;;;;;;3.35;2.78;;;18.50;99.90;;;;;;5035272;28;20179;-73
2022/10/17 08:59:53;;;;;;;2.67;2.47;;;18.40;99.90;;;;;;5036313;28;20195;-72
2022/10/17 09:02:53;;;;;;;3.47;2.65;;;18.40;99.90;;;;;;5019848;28;20210;-73
2022/10/17 09:05:43;;;;;;;2.97;2.63;;;18.40;99.90;;;;;;5052682;28;20281;-73
2022/10/17 09:08:40;;;;;;;4.22;2.55;;;18.40;99.90;;;;;;5035988;28;20221;-73
2022/10/17 09:11:40;;;;;;;3.15;2.33;;;18.40;99.90;;;;;;5019585;28;20179;-73
2022/10/17 09:14:33;;;;;;;2.97;2.63;;;18.40;99.90;;;;;;5035520;28;20240;-73
2022/10/17 09:17:31;;;;;;;2.30;2.10;;;18.40;99.90;;;;;;5035924;28;20194;-73
2022/10/17 09:20:14;;;;;;;2.47;2.25;;;18.40;99.90;;;;;;5018179;28;20202;-71
2022/10/17 09:23:11;;;;;;;3.53;2.30;;;18.50;99.90;;;;;;5019153;28;20206;-73
2022/10/17 09:25:49;;;;;;;2.30;2.10;;;18.40;99.90;;;;;;5019118;28;20186;-73
2022/10/17 09:28:20;;;;;;;2.40;2.20;;;18.40;99.90;;;;;;5019108;28;20317;-73
2022/10/17 09:31:03;;;;;;;3.20;2.70;;;18.40;99.90;;;;;;5018906;28;20270;-73
2022/10/17 09:33:39;;;;;;;2.47;2.17;;;18.50;99.90;;;;;;5035381;28;20218;-73
2022/10/17 09:36:14;;;;;;;2.47;2.05;;;18.40;99.90;;;;;;5035378;28;20193;-73
2022/10/17 09:38:44;;;;;;;3.25;2.47;;;18.40;99.90;;;;;;5035550;28;20265;-73
2022/10/17 09:41:21;;;;;;;2.30;2.10;;;18.50;99.90;;;;;;5035355;28;20187;-73
2022/10/17 09:43:47;;;;;;;2.40;2.20;;;18.40;99.90;;;;;;5018834;28;20186;-73
2022/10/17 09:46:34;;;;;;;2.88;2.17;;;18.50;99.90;;;;;;5018777;28;20182;-73
2022/10/17 09:49:31;;;;;;;2.45;2.25;;;18.50;99.90;;;;;;5035260;28;20186;-73
2022/10/17 09:52:00;;;;;;;2.10;1.90;;;18.40;99.90;;;;;;5034696;28;20214;-73
2022/10/17 09:54:47;;;;;;;2.15;1.95;;;18.50;99.90;;;;;;5035219;28;20232;-73
2022/10/17 09:57:15;;;;;;;2.92;2.17;;;18.50;99.90;;;;;;5018528;28;20202;-73
2022/10/17 09:59:46;;;;;;;2.30;2.10;;;18.50;99.90;;;;;;5035402;28;20305;-73
2022/10/17 10:02:12;;;;;;;2.65;1.98;;;18.50;99.90;;;;;;5018333;28;20215;-73
2022/10/17 10:04:59;;;;;;;2.28;2.05;;;18.50;99.90;;;;;;5024671;28;20194;-73
2022/10/17 10:07:31;;;;;;;1.90;1.80;;;18.50;99.90;;;;;;5031861;28;20213;-73
2022/10/17 10:09:59;;;;;;;2.20;2.00;;;18.50;99.90;;;;;;5031856;28;20270;-73
2022/10/17 10:12:37;;;;;;;2.65;2.00;;;18.50;99.90;;;;;;5017630;28;20682;-73
2022/10/17 10:15:36;;;;;;;1.92;1.83;;;18.50;99.90;;;;;;5018410;28;20191;-73
2022/10/17 10:18:03;;;;;;;1.85;1.75;;;18.50;99.90;;;;;;5034669;28;20603;-73
2022/10/17 10:20:35;;;;;;;2.60;1.90;;;18.50;99.90;;;;;;5033798;28;20255;-73
2022/10/17 10:23:17;;;;;;;2.15;1.95;;;18.50;99.90;;;;;;5034495;28;20211;-73
2022/10/17 10:26:13;;;;;;;2.53;1.98;;;18.50;99.90;;;;;;5052402;28;20186;-73
2022/10/17 10:28:40;;;;;;;1.77;1.67;;;18.50;99.90;;;;;;5034568;28;20222;-73
2022/10/17 10:31:08;;;;;;;2.35;1.80;;;18.50;99.90;;;;;;5017612;28;20201;-73
2022/10/17 10:33:42;;;;;;;2.53;2.17;;;18.50;99.90;;;;;;5052386;28;20194;-72
2022/10/17 10:36:08;;;;;;;1.95;1.85;;;18.50;99.90;;;;;;5009738;28;20217;-73
2022/10/17 10:38:39;;;;;;;2.20;2.00;;;18.50;99.90;;;;;;5023351;28;20658;-73
2022/10/17 10:41:08;;;;;;;2.05;1.95;;;18.50;99.90;;;;;;5023364;28;20183;-71
2022/10/17 10:43:44;;;;;;;2.85;1.85;;;18.50;99.90;;;;;;5042147;28;20210;-73
2022/10/17 10:46:24;;;;;;;3.60;1.85;;;18.50;99.90;;;;;;5024522;28;20214;-73
2022/10/17 10:48:59;;;;;;;2.35;1.85;;;18.50;99.90;;;;;;5010102;28;20187;-72
2022/10/17 10:51:39;;;;;;;1.90;1.80;;;18.50;99.90;;;;;;5030001;28;20235;-72
2022/10/17 10:54:50;;;;;;;1.75;1.63;;;18.50;99.90;;;;;;5015646;28;20667;-72
2022/10/17 10:57:20;;;;;;;2.28;1.90;;;18.50;99.90;;;;;;5007235;28;20297;-73
2022/10/17 11:00:03;;;;;;;2.08;1.75;;;18.50;99.90;;;;;;5034608;28;20186;-73
2022/10/17 11:03:04;;;;;;;1.83;1.73;;;18.50;99.90;;;;;;5034507;28;20213;-73
2022/10/17 11:05:42;;;;;;;1.90;1.80;;;18.50;99.90;;;;;;5017992;28;20687;-73
2022/10/17 11:08:48;;;;;;;1.73;1.63;;;18.60;99.90;;;;;;5034431;28;20289;-73
2022/10/17 11:11:37;;;;;;;2.05;1.58;;;18.60;99.90;;;;;;5034627;28;20175;-72
2022/10/17 11:14:31;;;;;;;1.88;1.67;;;18.50;99.90;;;;;;5018245;28;20206;-73
2022/10/17 11:17:19;;;;;;;2.58;1.70;;;18.50;99.90;;;;;;5051110;28;20182;-74
2022/10/17 11:20:07;;;;;;;2.30;2.00;;;18.60;99.90;;;;;;5052189;28;20202;-74
2022/10/17 11:22:41;;;;;;;1.60;1.50;;;18.60;99.90;;;;;;5034254;28;20214;-73
2022/10/17 11:25:30;;;;;;;2.33;1.70;;;18.50;99.90;;;;;;5034404;28;20760;-73
2022/10/17 11:27:56;;;;;;;1.90;1.80;;;18.50;99.90;;;;;;5051983;28;20194;-73
2022/10/17 11:30:29;;;;;;;2.65;1.67;;;18.60;99.90;;;;;;5028094;28;20190;-72
2022/10/17 11:32:59;;;;;;;2.72;1.67;;;18.60;99.90;;;;;;5051883;28;20202;-73
2022/10/17 11:35:29;;;;;;;1.83;1.30;;;18.60;99.90;;;;;;5050938;28;20205;-73
2022/10/17 11:38:34;;;;;;;2.25;1.63;;;18.60;99.90;;;;;;5050800;28;20193;-73
2022/10/17 11:41:03;;;;;;;2.08;1.80;;;18.50;99.90;;;;;;5031265;28;20205;-73
2022/10/17 11:43:41;;;;;;;1.88;1.30;;;18.50;99.90;;;;;;5034844;28;20216;-73
2022/10/17 11:46:22;;;;;;;2.08;1.80;;;18.50;99.90;;;;;;5021975;28;20186;-74
2022/10/17 11:49:17;;;;;;;1.92;1.73;;;18.60;99.90;;;;;;5021416;28;20595;-74
2022/10/17 11:52:07;;;;;;;1.67;1.58;;;18.60;99.90;;;;;;5054686;28;20708;-73
2022/10/17 11:54:41;;;;;;;2.33;1.75;;;18.60;99.90;;;;;;5037915;28;20668;-73
2022/10/17 11:57:44;;;;;;;3.22;1.60;;;18.60;99.90;;;;;;5037860;28;20190;-73
2022/10/17 12:00:53;;;;;;;2.58;1.77;;;18.60;99.90;;;;;;5027118;28;20285;-72
2022/10/17 12:03:37;;;;;;;3.10;1.90;;;18.50;99.90;;;;;;5038015;28;20210;-73
2022/10/17 12:06:27;;;;;;;2.03;1.80;;;18.50;99.90;;;;;;5035697;28;20225;-73
2022/10/17 12:09:17;;;;;;;2.00;1.63;;;18.60;99.90;;;;;;5037604;28;20175;-73
2022/10/17 12:12:03;;;;;;;2.45;1.70;;;18.60;99.90;;;;;;5037308;28;20214;-73
2022/10/17 12:14:32;;;;;;;2.00;1.85;;;18.50;99.90;;;;;;5037288;28;20198;-73
2022/10/17 12:17:00;;;;;;;2.38;1.90;;;18.60;99.90;;;;;;5037440;28;20195;-73
2022/10/17 12:19:31;;;;;;;1.80;1.70;;;18.60;99.90;;;;;;5037524;28;20263;-71
2022/10/17 12:22:19;;;;;;;1.52;1.38;;;18.60;99.90;;;;;;5037423;28;20213;-71
2022/10/17 12:25:01;;;;;;;3.60;1.50;;;18.60;99.90;;;;;;5037766;28;20175;-71
2022/10/17 12:27:42;;;;;;;3.15;1.95;;;18.60;99.90;;;;;;5021093;28;20207;-71
2022/10/17 12:30:11;;;;;;;1.73;1.60;;;18.60;99.90;;;;;;5037611;28;20191;-71
2022/10/17 12:32:55;;;;;;;2.50;1.30;;;18.60;99.90;;;;;;5037259;28;20285;-71
2022/10/17 12:35:24;;;;;;;1.88;1.60;;;18.60;99.90;;;;;;5055337;28;20209;-71
2022/10/17 12:37:50;;;;;;;3.10;1.40;;;18.60;99.90;;;;;;5037157;28;20186;-72
2022/10/17 12:40:34;;;;;;;2.50;1.70;;;18.60;99.90;;;;;;5036687;28;20190;-70
2022/10/17 12:43:26;;;;;;;1.40;1.30;;;18.60;99.90;;;;;;5039691;28;20205;-71
2022/10/17 12:45:54;;;;;;;2.35;1.80;;;18.60;99.90;;;;;;5016293;28;20199;-71
2022/10/17 12:48:35;;;;;;;3.22;1.58;;;18.60;99.90;;;;;;5040424;28;20217;-71
2022/10/17 12:51:16;;;;;;;1.77;1.67;;;18.60;99.90;;;;;;5059273;28;20218;-71
2022/10/17 12:53:58;;;;;;;2.67;1.70;;;18.60;99.90;;;;;;5037281;28;20292;-72
2022/10/17 12:56:36;;;;;;;2.67;1.58;;;18.60;99.90;;;;;;5046989;28;20209;-73
2022/10/17 12:59:27;;;;;;;2.15;1.58;;;18.60;99.90;;;;;;5017163;28;20557;-73
2022/10/17 13:02:03;;;;;;;2.88;1.60;;;18.60;99.90;;;;;;5013946;28;20206;-72
2022/10/17 13:04:30;;;;;;;2.38;1.63;;;18.70;99.90;;;;;;5037038;28;20179;-73
2022/10/17 13:06:59;;;;;;;2.50;1.42;;;18.60;99.90;;;;;;5020118;28;20210;-73
2022/10/17 13:09:41;;;;;;;1.85;1.65;;;18.60;99.90;;;;;;5020481;28;20187;-73
2022/10/17 13:12:19;;;;;;;2.00;1.80;;;18.60;99.90;;;;;;5044331;28;20289;-72
2022/10/17 13:14:46;;;;;;;2.50;1.77;;;18.60;99.90;;;;;;5037771;28;20188;-72
2022/10/17 13:17:29;;;;;;;2.17;1.60;;;18.60;99.90;;;;;;5056411;28;20190;-72
2022/10/17 13:19:56;;;;;;;3.60;1.98;;;18.60;99.90;;;;;;5050428;28;20201;-73
2022/10/17 13:22:31;;;;;;;1.70;1.60;;;18.70;99.90;;;;;;5022329;28;20261;-72
2022/10/17 13:25:19;;;;;;;2.85;1.50;;;18.70;99.90;;;;;;5055242;28;20178;-72
2022/10/17 13:27:46;;;;;;;2.70;1.92;;;18.60;99.90;;;;;;5073798;28;20212;-72
2022/10/17 13:30:29;;;;;;;2.92;1.65;;;18.60;99.90;;;;;;5056324;28;20185;-72